Time;durP1;ratioP1;P1;durP2;ratioP2;P2;SDS_P1;SDS_P2;PMS_P1;PMS_P2;Temp;Humidity;BMP_temperature;BMP_pressure;BME280_temperature;BME280_humidity;BME280_pressure;Samples;Min_cycle;Max_cycle;Signal;HPM_P1;HPM_P2
2022/10/10 00:02:11;;;;;;;4.60;3.55;;;8.40;99.90;;;;;;5056670;28;20036;-65
2022/10/10 00:04:37;;;;;;;5.07;3.75;;;8.50;99.90;;;;;;5074245;28;20428;-65
2022/10/10 00:07:03;;;;;;;4.18;3.58;;;8.40;99.90;;;;;;5056615;28;20055;-65
2022/10/10 00:09:29;;;;;;;6.60;3.88;;;8.40;99.90;;;;;;5074519;28;20045;-65
2022/10/10 00:11:54;;;;;;;4.28;3.30;;;8.50;99.90;;;;;;5074624;28;20052;-65
2022/10/10 00:14:20;;;;;;;6.43;3.78;;;8.50;99.90;;;;;;5073893;28;20072;-65
2022/10/10 00:16:46;;;;;;;6.18;3.83;;;8.40;99.90;;;;;;5074358;28;20082;-65
2022/10/10 00:19:11;;;;;;;5.82;3.33;;;8.40;99.90;;;;;;5074128;28;20115;-65
2022/10/10 00:21:37;;;;;;;6.22;3.85;;;8.40;99.90;;;;;;5074176;28;20044;-65
2022/10/10 00:24:03;;;;;;;5.15;3.90;;;8.40;99.90;;;;;;5073823;28;20099;-65
2022/10/10 00:26:28;;;;;;;4.10;3.63;;;8.40;99.90;;;;;;5074120;28;20091;-65
2022/10/10 00:28:54;;;;;;;7.32;3.97;;;8.30;99.90;;;;;;5074183;28;20071;-65
2022/10/10 00:31:20;;;;;;;4.22;3.70;;;8.40;99.90;;;;;;5074087;28;20123;-65
2022/10/10 00:33:46;;;;;;;4.57;3.28;;;8.30;99.90;;;;;;5073679;28;20044;-64
2022/10/10 00:36:12;;;;;;;6.82;3.78;;;8.40;99.90;;;;;;5073970;28;20059;-65
2022/10/10 00:38:38;;;;;;;5.18;3.30;;;8.40;99.90;;;;;;5055851;28;20032;-65
2022/10/10 00:41:04;;;;;;;4.30;3.80;;;8.30;99.90;;;;;;5074016;28;20033;-65
2022/10/10 00:43:30;;;;;;;5.03;3.67;;;8.30;99.90;;;;;;5073761;28;20528;-65
2022/10/10 00:45:56;;;;;;;5.45;3.63;;;8.30;99.90;;;;;;5073583;28;20040;-65
2022/10/10 00:48:24;;;;;;;6.80;4.20;;;8.30;99.90;;;;;;5073800;28;20038;-65
2022/10/10 00:51:04;;;;;;;3.50;3.20;;;8.30;99.90;;;;;;5073338;28;20064;-65
2022/10/10 00:53:35;;;;;;;4.75;3.97;;;8.30;99.90;;;;;;5073735;28;20047;-65
2022/10/10 00:56:02;;;;;;;4.88;3.63;;;8.20;99.90;;;;;;5073326;28;20035;-65
2022/10/10 00:58:28;;;;;;;7.47;4.00;;;8.20;99.90;;;;;;5073624;28;20055;-65
2022/10/10 01:00:54;;;;;;;4.82;3.67;;;8.20;99.90;;;;;;5073296;28;20041;-65
2022/10/10 01:03:20;;;;;;;4.32;3.58;;;8.10;99.90;;;;;;5073400;28;20551;-65
2022/10/10 01:05:48;;;;;;;5.38;3.75;;;8.10;99.90;;;;;;5073097;28;20048;-65
2022/10/10 01:08:16;;;;;;;6.07;4.13;;;8.10;99.90;;;;;;5073287;28;20536;-65
2022/10/10 01:10:57;;;;;;;6.35;3.75;;;8.00;99.90;;;;;;5073317;28;20079;-65
2022/10/10 01:13:41;;;;;;;7.25;3.90;;;8.00;99.90;;;;;;5073297;28;20048;-65
2022/10/10 01:16:16;;;;;;;5.95;3.35;;;8.10;99.90;;;;;;5073371;28;20101;-65
2022/10/10 01:19:12;;;;;;;5.07;4.38;;;8.00;99.90;;;;;;5073237;28;20037;-65
2022/10/10 01:21:44;;;;;;;5.10;3.88;;;8.00;99.90;;;;;;5058665;28;20493;-65
2022/10/10 01:24:13;;;;;;;6.50;3.88;;;8.00;99.90;;;;;;5054730;28;20051;-65
2022/10/10 01:26:56;;;;;;;6.80;3.53;;;7.90;99.90;;;;;;5073127;28;20059;-65
2022/10/10 01:29:29;;;;;;;4.53;3.92;;;8.00;99.90;;;;;;5072926;28;20044;-65
2022/10/10 01:32:01;;;;;;;5.45;3.80;;;8.00;99.90;;;;;;5055462;28;20040;-65
2022/10/10 01:34:52;;;;;;;4.65;3.70;;;8.00;99.90;;;;;;5072491;28;20048;-65
2022/10/10 01:37:38;;;;;;;5.90;4.20;;;8.00;99.90;;;;;;5072996;28;20051;-65
2022/10/10 01:40:23;;;;;;;5.40;3.80;;;7.90;99.90;;;;;;5072678;28;20036;-65
2022/10/10 01:42:53;;;;;;;5.95;3.70;;;7.90;99.90;;;;;;5072603;28;20119;-65
2022/10/10 01:45:19;;;;;;;4.55;4.10;;;7.90;99.90;;;;;;5054692;28;20094;-65
2022/10/10 01:47:45;;;;;;;5.53;4.13;;;8.00;99.90;;;;;;5072740;28;20036;-65
2022/10/10 01:50:15;;;;;;;4.50;3.70;;;7.90;99.90;;;;;;5072373;28;20111;-65
2022/10/10 01:52:55;;;;;;;5.43;3.58;;;7.90;99.90;;;;;;5054468;28;20404;-65
2022/10/10 01:55:32;;;;;;;7.57;4.07;;;7.90;99.90;;;;;;5072064;28;20036;-65
2022/10/10 01:58:16;;;;;;;4.15;3.20;;;7.90;99.90;;;;;;5072286;28;20489;-65
2022/10/10 02:01:23;;;;;;;4.82;4.30;;;7.90;99.90;;;;;;5072217;28;20041;-65
2022/10/10 02:03:59;;;;;;;8.45;4.40;;;7.90;99.90;;;;;;5053466;28;20067;-65
2022/10/10 02:06:35;;;;;;;5.70;4.07;;;7.90;99.90;;;;;;5072455;28;20040;-65
2022/10/10 02:09:06;;;;;;;4.85;3.80;;;7.80;99.90;;;;;;5072068;28;20037;-65
2022/10/10 02:11:35;;;;;;;4.85;4.00;;;7.80;99.90;;;;;;5072244;28;20044;-65
2022/10/10 02:14:21;;;;;;;4.35;3.78;;;7.80;99.90;;;;;;5071628;28;20541;-64
2022/10/10 02:16:51;;;;;;;4.55;3.97;;;7.80;99.90;;;;;;5072294;28;20043;-65
2022/10/10 02:19:19;;;;;;;8.02;4.03;;;7.70;99.90;;;;;;5072050;28;20078;-65
2022/10/10 02:21:46;;;;;;;5.15;4.10;;;7.80;99.90;;;;;;5054134;28;20040;-65
2022/10/10 02:24:12;;;;;;;4.53;4.03;;;7.70;99.90;;;;;;5053690;28;20045;-65
2022/10/10 02:26:42;;;;;;;5.15;3.72;;;7.70;99.90;;;;;;5071787;28;20052;-65
2022/10/10 02:29:18;;;;;;;5.60;4.15;;;7.80;99.90;;;;;;5071972;28;20040;-66
2022/10/10 02:32:12;;;;;;;5.82;4.50;;;7.80;99.90;;;;;;5071990;28;20111;-65
2022/10/10 02:34:44;;;;;;;5.97;4.18;;;7.80;99.90;;;;;;5071457;28;20115;-65
2022/10/10 02:37:13;;;;;;;5.65;3.83;;;7.80;99.90;;;;;;5054040;28;20048;-65
2022/10/10 02:39:43;;;;;;;5.95;3.95;;;7.80;99.90;;;;;;5071607;28;20098;-65
2022/10/10 02:42:11;;;;;;;6.70;3.80;;;7.80;99.90;;;;;;5071866;28;20093;-65
2022/10/10 02:44:38;;;;;;;5.35;3.78;;;7.80;99.90;;;;;;5071476;28;20090;-65
2022/10/10 02:47:04;;;;;;;7.40;4.35;;;7.80;99.90;;;;;;5071711;28;20076;-65
2022/10/10 02:49:32;;;;;;;5.00;4.00;;;7.80;99.90;;;;;;5053641;28;20076;-65
2022/10/10 02:51:57;;;;;;;5.82;4.10;;;7.70;99.90;;;;;;5071517;28;20036;-65
2022/10/10 02:54:23;;;;;;;6.53;4.50;;;7.80;99.90;;;;;;5071437;28;20047;-65
2022/10/10 02:56:49;;;;;;;4.40;4.00;;;7.80;99.90;;;;;;5071383;28;20408;-65
2022/10/10 02:59:15;;;;;;;5.72;4.45;;;7.90;99.90;;;;;;5053393;28;20041;-65
2022/10/10 03:01:40;;;;;;;6.30;4.03;;;7.70;99.90;;;;;;5053575;28;20106;-65
2022/10/10 03:04:06;;;;;;;5.75;3.97;;;7.80;99.90;;;;;;5071177;28;20525;-65
2022/10/10 03:06:31;;;;;;;5.25;3.97;;;7.80;99.90;;;;;;5053417;28;20408;-65
2022/10/10 03:08:57;;;;;;;4.05;3.55;;;7.70;99.90;;;;;;5053621;28;20681;-65
2022/10/10 03:11:22;;;;;;;7.28;3.80;;;7.80;99.90;;;;;;5071535;28;20043;-66
2022/10/10 03:13:48;;;;;;;4.32;3.90;;;7.80;99.90;;;;;;5073316;28;20044;-65
2022/10/10 03:16:13;;;;;;;4.45;3.95;;;7.80;99.90;;;;;;5075471;28;20032;-65
2022/10/10 03:18:39;;;;;;;6.60;4.15;;;7.80;99.90;;;;;;5075354;28;20401;-65
2022/10/10 03:21:05;;;;;;;4.82;3.67;;;7.80;99.90;;;;;;5075358;28;20028;-66
2022/10/10 03:23:31;;;;;;;5.10;3.75;;;7.80;99.90;;;;;;5075520;28;20040;-65
2022/10/10 03:25:56;;;;;;;6.22;4.15;;;7.80;99.90;;;;;;5075031;28;20481;-66
2022/10/10 03:28:22;;;;;;;5.00;3.55;;;7.80;99.90;;;;;;5075330;28;20036;-65
2022/10/10 03:30:47;;;;;;;3.83;3.22;;;7.80;99.90;;;;;;5075130;28;20041;-65
2022/10/10 03:33:13;;;;;;;4.97;4.25;;;7.80;99.90;;;;;;5075121;28;20073;-65
2022/10/10 03:35:39;;;;;;;4.95;4.25;;;7.80;99.90;;;;;;5074704;28;20045;-65
2022/10/10 03:38:05;;;;;;;5.22;4.28;;;7.80;99.90;;;;;;5075025;28;20396;-65
2022/10/10 03:40:31;;;;;;;5.75;3.55;;;7.80;99.90;;;;;;5056906;28;20045;-65
2022/10/10 03:42:57;;;;;;;6.13;4.10;;;7.80;99.90;;;;;;5074955;28;20488;-66
2022/10/10 03:45:23;;;;;;;6.05;4.05;;;7.70;99.90;;;;;;5074686;28;20047;-65
2022/10/10 03:47:49;;;;;;;6.78;4.25;;;7.70;99.90;;;;;;5074813;28;20397;-65
2022/10/10 03:50:15;;;;;;;6.38;4.45;;;7.70;99.90;;;;;;5074690;28;20036;-65
2022/10/10 03:52:40;;;;;;;6.03;4.18;;;7.80;99.90;;;;;;5056841;28;20086;-65
2022/10/10 03:55:06;;;;;;;4.60;4.18;;;7.70;99.90;;;;;;5074471;28;20043;-65
2022/10/10 03:57:32;;;;;;;8.48;4.32;;;7.70;99.90;;;;;;5074774;28;20079;-65
2022/10/10 03:59:57;;;;;;;4.55;3.72;;;7.70;99.90;;;;;;5074533;28;20040;-65
2022/10/10 04:02:23;;;;;;;4.90;3.80;;;7.70;99.90;;;;;;5074555;28;20111;-65
2022/10/10 04:04:48;;;;;;;7.05;4.28;;;7.70;99.90;;;;;;5074199;28;20479;-65
2022/10/10 04:07:14;;;;;;;7.30;4.40;;;7.70;99.90;;;;;;5074482;28;20413;-65
2022/10/10 04:09:39;;;;;;;6.07;3.83;;;7.70;99.90;;;;;;5074454;28;20106;-65
2022/10/10 04:12:05;;;;;;;5.13;4.15;;;7.80;99.90;;;;;;5074552;28;20435;-65
2022/10/10 04:14:30;;;;;;;5.50;3.83;;;7.70;99.90;;;;;;5074066;28;20434;-65
2022/10/10 04:16:56;;;;;;;5.78;4.18;;;7.70;99.90;;;;;;5074377;28;20037;-65
2022/10/10 04:19:21;;;;;;;8.65;4.13;;;7.70;99.90;;;;;;5056324;28;20053;-65
2022/10/10 04:21:47;;;;;;;5.00;4.40;;;7.70;99.90;;;;;;5074409;28;20055;-65
2022/10/10 04:24:13;;;;;;;6.45;4.10;;;7.70;99.90;;;;;;5055830;28;20051;-65
2022/10/10 04:26:38;;;;;;;6.43;4.72;;;7.70;99.90;;;;;;5073802;28;20513;-65
2022/10/10 04:29:04;;;;;;;5.85;4.05;;;7.70;99.90;;;;;;5074203;28;20412;-65
2022/10/10 04:31:29;;;;;;;4.85;4.28;;;7.70;99.90;;;;;;5074175;28;20041;-65
2022/10/10 04:33:55;;;;;;;5.82;4.43;;;7.70;99.90;;;;;;5055629;28;20041;-65
2022/10/10 04:36:20;;;;;;;5.97;4.63;;;7.70;99.90;;;;;;5055932;28;20071;-65
2022/10/10 04:38:46;;;;;;;4.88;4.13;;;7.70;99.90;;;;;;5055884;28;20508;-65
2022/10/10 04:41:11;;;;;;;7.03;4.38;;;7.60;99.90;;;;;;5074038;28;20044;-65
2022/10/10 04:43:37;;;;;;;5.78;4.57;;;7.60;99.90;;;;;;5073925;28;20055;-65
2022/10/10 04:46:03;;;;;;;6.05;4.00;;;7.60;99.90;;;;;;5073628;28;20038;-65
2022/10/10 04:48:28;;;;;;;6.32;3.90;;;7.60;99.90;;;;;;5055680;28;20126;-65
2022/10/10 04:50:58;;;;;;;4.25;3.83;;;7.50;99.90;;;;;;5073842;28;20036;-65
2022/10/10 04:53:24;;;;;;;7.32;3.40;;;7.50;99.90;;;;;;5073727;28;20425;-65
2022/10/10 04:55:49;;;;;;;5.40;4.13;;;7.40;99.90;;;;;;5073283;28;20040;-65
2022/10/10 04:58:15;;;;;;;5.97;4.43;;;7.40;99.90;;;;;;5073548;28;20033;-65
2022/10/10 05:00:41;;;;;;;5.05;4.13;;;7.40;99.90;;;;;;5055659;28;20405;-65
2022/10/10 05:03:10;;;;;;;8.13;4.40;;;7.40;99.90;;;;;;5073309;28;20048;-65
2022/10/10 05:05:35;;;;;;;5.93;4.20;;;7.40;99.90;;;;;;5073236;28;20040;-65
2022/10/10 05:08:01;;;;;;;11.85;4.10;;;7.40;99.90;;;;;;5073494;28;20037;-65
2022/10/10 05:10:26;;;;;;;5.38;4.18;;;7.30;99.90;;;;;;5073363;28;20455;-65
2022/10/10 05:12:52;;;;;;;7.03;4.35;;;7.30;99.90;;;;;;5073340;28;20048;-65
2022/10/10 05:15:20;;;;;;;8.15;4.28;;;7.40;99.90;;;;;;5054948;28;20037;-65
2022/10/10 05:17:46;;;;;;;5.32;4.53;;;7.40;99.90;;;;;;5073150;28;20442;-65
2022/10/10 05:20:11;;;;;;;6.55;4.47;;;7.30;99.90;;;;;;5055387;28;20047;-66
2022/10/10 05:22:37;;;;;;;5.90;4.10;;;7.40;99.90;;;;;;5073243;28;20040;-66
2022/10/10 05:25:03;;;;;;;9.50;4.30;;;7.40;99.90;;;;;;5072793;28;20040;-65
2022/10/10 05:27:28;;;;;;;7.75;4.72;;;7.40;99.90;;;;;;5055060;28;20044;-65
2022/10/10 05:29:54;;;;;;;8.48;4.40;;;7.30;99.90;;;;;;5055012;28;20040;-65
2022/10/10 05:32:21;;;;;;;4.95;3.95;;;7.40;99.90;;;;;;5073212;28;20496;-67
2022/10/10 05:34:46;;;;;;;8.63;4.55;;;7.40;99.90;;;;;;5072760;28;20374;-67
2022/10/10 05:37:13;;;;;;;6.47;4.10;;;7.40;99.90;;;;;;5071917;28;20070;-65
2022/10/10 05:39:39;;;;;;;6.28;4.43;;;7.40;99.90;;;;;;5070834;28;20496;-65
2022/10/10 05:42:04;;;;;;;7.32;4.75;;;7.50;99.90;;;;;;5069708;28;20043;-65
2022/10/10 05:44:30;;;;;;;4.45;3.97;;;7.40;99.90;;;;;;5069698;28;20051;-65
2022/10/10 05:46:56;;;;;;;5.82;4.57;;;7.40;99.90;;;;;;5071955;28;20055;-65
2022/10/10 05:49:22;;;;;;;5.90;4.60;;;7.40;99.90;;;;;;5072139;28;20036;-65
2022/10/10 05:51:48;;;;;;;5.15;3.90;;;7.40;99.90;;;;;;5072125;28;20082;-65
2022/10/10 05:54:13;;;;;;;5.82;4.03;;;7.40;99.90;;;;;;5037011;28;20117;-65
2022/10/10 05:56:39;;;;;;;6.75;4.50;;;7.40;99.90;;;;;;5072432;28;20036;-65
2022/10/10 05:59:05;;;;;;;6.78;4.47;;;7.30;99.90;;;;;;5072296;28;20039;-65
2022/10/10 06:01:30;;;;;;;5.43;4.18;;;7.40;99.90;;;;;;5079181;22;20024;-68
2022/10/10 06:03:56;;;;;;;6.25;4.25;;;7.30;99.90;;;;;;5112405;28;20055;-68
2022/10/10 06:06:23;;;;;;;6.03;4.18;;;7.30;99.90;;;;;;5111571;28;20039;-68
2022/10/10 06:08:48;;;;;;;7.05;4.72;;;7.30;99.90;;;;;;5112873;28;20440;-68
2022/10/10 06:11:16;;;;;;;7.22;5.32;;;7.20;99.90;;;;;;5112199;28;20074;-68
2022/10/10 06:13:42;;;;;;;6.60;4.68;;;7.30;99.90;;;;;;5090968;28;20040;-68
2022/10/10 06:16:08;;;;;;;8.52;5.03;;;7.30;99.90;;;;;;5090978;28;20048;-67
2022/10/10 06:18:33;;;;;;;6.85;4.45;;;7.30;99.90;;;;;;5092567;28;20407;-68
2022/10/10 06:21:04;;;;;;;6.35;4.70;;;7.30;99.90;;;;;;5092326;28;20039;-67
2022/10/10 06:23:30;;;;;;;11.60;4.10;;;7.30;99.90;;;;;;5092181;28;20043;-68
2022/10/10 06:25:56;;;;;;;6.43;4.45;;;7.30;99.90;;;;;;5090689;28;20040;-68
2022/10/10 06:28:21;;;;;;;5.20;3.92;;;7.30;99.90;;;;;;5092103;28;20052;-68
2022/10/10 06:30:49;;;;;;;8.68;4.63;;;7.30;99.90;;;;;;5092362;28;20042;-68
2022/10/10 06:33:15;;;;;;;5.47;4.40;;;7.40;99.90;;;;;;5090826;28;20079;-67
2022/10/10 06:35:47;;;;;;;6.53;4.28;;;7.50;99.90;;;;;;5090458;28;20512;-68
2022/10/10 06:38:14;;;;;;;8.27;5.07;;;7.50;99.90;;;;;;5092127;28;20040;-68
2022/10/10 06:40:40;;;;;;;11.25;4.90;;;7.60;99.90;;;;;;5090570;28;20097;-68
2022/10/10 06:43:11;;;;;;;8.05;4.88;;;7.70;99.90;;;;;;5090677;28;20036;-68
2022/10/10 06:45:45;;;;;;;9.18;5.15;;;7.80;99.90;;;;;;5091638;28;20508;-68
2022/10/10 06:48:12;;;;;;;6.30;4.65;;;7.90;99.90;;;;;;5091620;28;20557;-68
2022/10/10 06:50:38;;;;;;;8.32;5.30;;;8.00;99.90;;;;;;5092055;28;20051;-68
2022/10/10 06:53:04;;;;;;;7.03;4.60;;;8.00;99.90;;;;;;5091514;28;20040;-68
2022/10/10 06:55:29;;;;;;;6.10;5.03;;;8.00;99.90;;;;;;5089585;28;20040;-68
2022/10/10 06:57:55;;;;;;;8.30;4.72;;;8.20;99.90;;;;;;5090014;28;20048;-68
2022/10/10 07:00:21;;;;;;;9.73;4.85;;;8.20;99.90;;;;;;5090435;28;20475;-68
2022/10/10 07:02:46;;;;;;;9.73;4.55;;;8.30;99.90;;;;;;5091525;28;20051;-67
2022/10/10 07:05:17;;;;;;;8.07;4.45;;;8.40;99.90;;;;;;5091658;28;20043;-68
2022/10/10 07:07:44;;;;;;;6.97;4.35;;;8.40;99.90;;;;;;5090358;28;20051;-68
2022/10/10 07:10:12;;;;;;;8.38;5.07;;;8.50;99.90;;;;;;5090336;28;20512;-68
2022/10/10 07:12:38;;;;;;;5.75;4.75;;;8.60;99.90;;;;;;5091482;28;20075;-68
2022/10/10 07:15:05;;;;;;;7.43;4.40;;;8.60;99.90;;;;;;5091323;28;20622;-68
2022/10/10 07:17:31;;;;;;;8.50;5.03;;;8.70;99.90;;;;;;5091435;28;20115;-68
2022/10/10 07:19:56;;;;;;;9.23;4.95;;;8.80;99.90;;;;;;5090422;28;20121;-68
2022/10/10 07:22:22;;;;;;;10.43;5.00;;;8.80;99.90;;;;;;5091654;28;20676;-68
2022/10/10 07:24:48;;;;;;;11.18;5.03;;;8.80;99.90;;;;;;5090063;28;20048;-68
2022/10/10 07:27:13;;;;;;;15.90;6.32;;;8.90;99.90;;;;;;5091606;28;20067;-68
2022/10/10 07:29:40;;;;;;;12.38;5.68;;;9.00;99.90;;;;;;5091567;28;20480;-68
2022/10/10 07:32:05;;;;;;;8.10;5.05;;;9.10;99.90;;;;;;5089635;28;20085;-68
2022/10/10 07:34:31;;;;;;;9.45;5.15;;;9.10;99.90;;;;;;5089534;28;20451;-68
2022/10/10 07:36:56;;;;;;;8.30;5.13;;;9.20;99.90;;;;;;5089809;28;20071;-68
2022/10/10 07:39:23;;;;;;;12.35;5.80;;;9.20;99.90;;;;;;5091072;28;20032;-68
2022/10/10 07:41:50;;;;;;;11.40;4.68;;;9.30;99.90;;;;;;5088280;28;20040;-68
2022/10/10 07:44:16;;;;;;;9.50;4.93;;;9.30;99.90;;;;;;5072760;28;20055;-68
2022/10/10 07:46:42;;;;;;;8.90;4.80;;;9.30;99.90;;;;;;5089457;28;20121;-68
2022/10/10 07:49:08;;;;;;;8.07;5.00;;;9.40;99.90;;;;;;5090452;28;20036;-68
2022/10/10 07:51:34;;;;;;;6.60;4.65;;;9.40;99.90;;;;;;5089352;28;20043;-68
2022/10/10 07:54:00;;;;;;;10.88;5.10;;;9.40;99.90;;;;;;5089070;28;20488;-68
2022/10/10 07:56:26;;;;;;;8.68;4.90;;;9.50;99.90;;;;;;5090550;28;20032;-68
2022/10/10 07:58:51;;;;;;;11.52;5.20;;;9.50;99.90;;;;;;5090615;28;20436;-68
2022/10/10 08:01:18;;;;;;;7.95;5.45;;;9.50;99.90;;;;;;5093033;28;20040;-68
2022/10/10 08:03:44;;;;;;;11.57;5.32;;;9.60;99.90;;;;;;5092251;28;20059;-67
2022/10/10 08:06:13;;;;;;;9.02;5.28;;;9.60;99.90;;;;;;5093153;28;20039;-68
2022/10/10 08:08:39;;;;;;;9.82;5.07;;;9.70;99.90;;;;;;5093410;28;20036;-67
2022/10/10 08:11:07;;;;;;;8.77;5.30;;;9.70;99.90;;;;;;5094933;28;20036;-67
2022/10/10 08:13:33;;;;;;;8.20;5.72;;;9.80;99.90;;;;;;5094556;28;20489;-68
2022/10/10 08:15:59;;;;;;;8.77;4.90;;;9.80;99.90;;;;;;5092887;28;20044;-67
2022/10/10 08:18:25;;;;;;;8.60;5.28;;;9.80;99.90;;;;;;5094734;28;20034;-68
2022/10/10 08:21:02;;;;;;;8.23;5.85;;;9.90;99.90;;;;;;5094591;28;20043;-68
2022/10/10 08:23:28;;;;;;;8.23;5.47;;;10.00;99.90;;;;;;5094590;28;20493;-67
2022/10/10 08:25:56;;;;;;;7.57;5.38;;;10.00;99.90;;;;;;5093259;28;20057;-68
2022/10/10 08:28:22;;;;;;;7.60;4.90;;;10.10;99.90;;;;;;5093422;28;20449;-68
2022/10/10 08:30:48;;;;;;;9.07;5.78;;;10.10;99.90;;;;;;5094509;28;20131;-67
2022/10/10 08:33:13;;;;;;;8.00;5.03;;;10.10;99.90;;;;;;5093063;28;20068;-67
2022/10/10 08:35:39;;;;;;;9.07;5.80;;;10.20;99.90;;;;;;5092633;28;20497;-68
2022/10/10 08:38:05;;;;;;;8.82;5.70;;;10.20;99.90;;;;;;5093243;28;20035;-67
2022/10/10 08:40:31;;;;;;;10.98;5.53;;;10.30;99.90;;;;;;5093017;28;20071;-67
2022/10/10 08:43:03;;;;;;;9.60;6.03;;;10.30;99.90;;;;;;5093669;28;20400;-67
2022/10/10 08:45:32;;;;;;;10.27;5.65;;;10.30;99.90;;;;;;5093470;28;20047;-67
2022/10/10 08:48:01;;;;;;;9.63;5.72;;;10.40;99.90;;;;;;5093065;28;20035;-67
2022/10/10 08:50:32;;;;;;;7.22;5.35;;;10.50;99.90;;;;;;5093116;28;20409;-68
2022/10/10 08:53:13;;;;;;;10.75;6.13;;;10.50;99.90;;;;;;5090278;28;20044;-68
2022/10/10 08:55:42;;;;;;;8.15;6.07;;;10.60;99.90;;;;;;5089223;28;20119;-68
2022/10/10 08:58:15;;;;;;;11.13;5.22;;;10.60;99.90;;;;;;5093197;28;20032;-69
2022/10/10 09:01:08;;;;;;;7.80;5.57;;;10.60;99.90;;;;;;5087590;28;20084;-68
2022/10/10 09:03:45;;;;;;;7.82;5.63;;;10.60;99.90;;;;;;5076724;28;20048;-68
2022/10/10 09:06:43;;;;;;;8.43;5.97;;;10.60;99.90;;;;;;5088381;28;20036;-68
2022/10/10 09:09:45;;;;;;;8.75;5.32;;;10.70;99.90;;;;;;5091281;28;20032;-68
2022/10/10 09:12:23;;;;;;;9.43;5.68;;;10.80;99.90;;;;;;5093674;28;20036;-69
2022/10/10 09:15:19;;;;;;;8.88;6.15;;;10.80;99.90;;;;;;5093276;28;20089;-67
2022/10/10 09:17:57;;;;;;;8.32;5.50;;;10.90;99.90;;;;;;5093403;28;20472;-67
2022/10/10 09:20:50;;;;;;;8.68;5.80;;;10.90;99.90;;;;;;5093650;28;20127;-67
2022/10/10 09:23:27;;;;;;;8.32;5.43;;;10.90;99.90;;;;;;5093427;28;20400;-67
2022/10/10 09:26:07;;;;;;;11.20;5.80;;;11.00;99.90;;;;;;5091809;28;20040;-67
2022/10/10 09:28:53;;;;;;;8.43;5.50;;;11.10;99.90;;;;;;5092889;28;20055;-67
2022/10/10 09:31:25;;;;;;;12.75;5.80;;;11.20;99.90;;;;;;5091675;28;20106;-67
2022/10/10 09:33:56;;;;;;;9.23;5.72;;;11.20;99.90;;;;;;5093103;28;20052;-67
2022/10/10 09:36:26;;;;;;;13.93;6.40;;;11.40;99.90;;;;;;5093265;28;20043;-67
2022/10/10 09:39:00;;;;;;;7.72;5.53;;;11.60;99.90;;;;;;5091605;28;20044;-67
2022/10/10 09:41:43;;;;;;;8.75;6.05;;;11.60;99.90;;;;;;5092957;28;20640;-67
2022/10/10 09:44:11;;;;;;;11.70;6.15;;;11.60;99.90;;;;;;5091570;28;20453;-67
2022/10/10 09:46:37;;;;;;;10.82;5.40;;;11.70;99.90;;;;;;5093135;28;20126;-67
2022/10/10 09:49:03;;;;;;;15.05;6.03;;;11.70;99.90;;;;;;5093043;28;20048;-67
2022/10/10 09:51:30;;;;;;;12.02;5.63;;;11.80;99.90;;;;;;5092906;28;20044;-67
2022/10/10 09:53:56;;;;;;;10.90;6.40;;;12.00;99.90;;;;;;5092542;28;20086;-67
2022/10/10 09:56:46;;;;;;;13.30;5.72;;;12.10;99.90;;;;;;5093170;28;20484;-67
2022/10/10 09:59:39;;;;;;;12.07;6.15;;;12.40;99.90;;;;;;5091987;28;20040;-67
2022/10/10 10:02:17;;;;;;;9.35;6.20;;;12.60;99.90;;;;;;5092566;28;20096;-67
2022/10/10 10:04:43;;;;;;;9.25;5.03;;;12.60;99.90;;;;;;5092833;28;20047;-67
2022/10/10 10:07:22;;;;;;;8.60;5.15;;;12.70;99.90;;;;;;5092893;28;20040;-67
2022/10/10 10:10:20;;;;;;;8.85;5.90;;;12.70;99.90;;;;;;5092674;28;20127;-67
2022/10/10 10:12:47;;;;;;;8.07;5.60;;;12.70;99.90;;;;;;5083660;28;20051;-67
2022/10/10 10:15:25;;;;;;;14.50;5.63;;;12.80;99.90;;;;;;5092113;28;20039;-67
2022/10/10 10:18:16;;;;;;;9.90;6.57;;;12.80;99.90;;;;;;5091132;28;20039;-67
2022/10/10 10:20:48;;;;;;;8.52;5.47;;;12.90;99.90;;;;;;5092330;28;20032;-67
2022/10/10 10:23:24;;;;;;;;;;;13.00;99.90;;;;;;5092218;28;20032;-67
2022/10/10 10:26:22;;;;;;;10.38;6.20;;;13.10;99.90;;;;;;5092236;28;19948;-67
2022/10/10 10:28:49;;;;;;;11.90;6.38;;;13.20;99.90;;;;;;5082778;28;20075;-67
2022/10/10 10:31:46;;;;;;;9.60;6.10;;;13.30;99.90;;;;;;5092302;28;20051;-67
2022/10/10 10:34:39;;;;;;;7.68;5.57;;;13.20;99.90;;;;;;5091707;28;20055;-69
2022/10/10 10:37:11;;;;;;;8.95;5.30;;;13.30;99.90;;;;;;5092071;28;20040;-68
2022/10/10 10:40:10;;;;;;;10.57;5.40;;;13.20;99.90;;;;;;5092303;28;20115;-68
2022/10/10 10:42:44;;;;;;;7.97;5.40;;;13.30;99.90;;;;;;5091618;28;20093;-68
2022/10/10 10:45:43;;;;;;;9.88;5.18;;;13.30;99.90;;;;;;5091719;28;20044;-68
2022/10/10 10:48:28;;;;;;;13.15;5.10;;;13.30;99.90;;;;;;5092002;28;20081;-68
2022/10/10 10:51:01;;;;;;;11.63;5.90;;;13.50;99.90;;;;;;5092047;28;20047;-68
2022/10/10 10:53:53;;;;;;;8.85;5.25;;;13.50;99.90;;;;;;5091850;28;20111;-68
2022/10/10 10:56:22;;;;;;;10.50;5.43;;;13.70;99.90;;;;;;5089425;28;20040;-68
2022/10/10 10:59:15;;;;;;;12.05;6.00;;;13.70;99.90;;;;;;5072563;28;20102;-67
2022/10/10 11:01:57;;;;;;;8.13;5.22;;;13.80;99.90;;;;;;5087666;28;20036;-68
2022/10/10 11:04:47;;;;;;;9.95;6.10;;;13.80;99.90;;;;;;5086546;28;20057;-68
2022/10/10 11:07:19;;;;;;;9.38;5.35;;;13.70;99.90;;;;;;5087742;28;20508;-68
2022/10/10 11:09:57;;;;;;;10.82;5.13;;;13.80;99.90;;;;;;5091069;28;20044;-68
2022/10/10 11:12:39;;;;;;;9.63;5.40;;;13.80;99.90;;;;;;5090838;28;20412;-68
2022/10/10 11:15:24;;;;;;;8.07;5.20;;;13.80;99.90;;;;;;5090101;28;20110;-68
2022/10/10 11:18:13;;;;;;;7.20;4.90;;;13.90;99.90;;;;;;5091690;28;20044;-68
2022/10/10 11:20:51;;;;;;;11.85;5.30;;;13.80;99.90;;;;;;5090654;28;20051;-69
2022/10/10 11:23:21;;;;;;;8.18;4.82;;;13.90;99.90;;;;;;5090592;28;20417;-68
2022/10/10 11:25:55;;;;;;;11.82;5.32;;;14.00;99.90;;;;;;5090133;28;20115;-69
2022/10/10 11:28:40;;;;;;;9.48;5.20;;;13.90;99.90;;;;;;5091671;28;20044;-68
2022/10/10 11:31:12;;;;;;;8.80;4.95;;;14.00;99.90;;;;;;5091689;28;20412;-68
2022/10/10 11:33:49;;;;;;;8.50;5.20;;;14.10;99.90;;;;;;5090249;28;20040;-68
2022/10/10 11:36:18;;;;;;;7.72;4.63;;;14.10;99.90;;;;;;5093370;28;20099;-68
2022/10/10 11:39:01;;;;;;;7.50;4.32;;;14.10;99.90;;;;;;5094449;28;20044;-68
2022/10/10 11:41:27;;;;;;;;;;;14.10;99.90;;;;;;5094665;28;20047;-68
2022/10/10 11:44:03;;;;;;;7.43;4.75;;;14.20;99.90;;;;;;5095116;28;20391;-68
2022/10/10 11:46:44;;;;;;;11.02;4.03;;;14.20;99.90;;;;;;5094134;28;20512;-68
2022/10/10 11:49:12;;;;;;;8.40;4.68;;;14.20;99.90;;;;;;5094160;28;20500;-68
2022/10/10 11:51:56;;;;;;;15.23;4.45;;;14.30;99.90;;;;;;5095354;28;20036;-68
2022/10/10 11:54:39;;;;;;;6.50;4.03;;;14.30;99.90;;;;;;5093481;28;20044;-69
2022/10/10 11:57:12;;;;;;;5.82;3.80;;;14.30;99.90;;;;;;5094167;28;20377;-68
2022/10/10 12:00:04;;;;;;;9.40;5.00;;;14.30;99.90;;;;;;5093872;28;20028;-68
2022/10/10 12:02:35;;;;;;;6.18;3.95;;;14.30;99.90;;;;;;5092820;28;20051;-68
2022/10/10 12:05:06;;;;;;;8.93;4.35;;;14.20;99.90;;;;;;5094962;28;20044;-68
2022/10/10 12:07:38;;;;;;;6.95;4.00;;;14.20;99.90;;;;;;5093659;28;20063;-68
2022/10/10 12:10:20;;;;;;;7.75;4.32;;;14.10;99.90;;;;;;5094069;28;20096;-68
2022/10/10 12:12:48;;;;;;;7.70;4.53;;;14.10;99.90;;;;;;5093670;28;20127;-70
2022/10/10 12:15:26;;;;;;;9.25;4.40;;;14.10;99.90;;;;;;5111550;22;20044;-65
2022/10/10 12:17:52;;;;;;;8.23;4.75;;;14.10;99.90;;;;;;5094913;28;20119;-65
2022/10/10 12:20:26;;;;;;;8.57;4.75;;;14.10;99.90;;;;;;5094775;28;20121;-65
2022/10/10 12:23:13;;;;;;;8.73;4.40;;;14.10;99.90;;;;;;5094714;28;20433;-65
2022/10/10 12:25:45;;;;;;;11.73;5.43;;;14.00;99.90;;;;;;5073923;28;20430;-65
2022/10/10 12:28:13;;;;;;;6.37;3.93;;;14.10;99.90;;;;;;5073794;28;20083;-65
2022/10/10 12:31:08;;;;;;;9.18;4.75;;;14.10;99.90;;;;;;5072862;28;20079;-65
2022/10/10 12:33:33;;;;;;;10.95;4.25;;;14.10;99.90;;;;;;5064747;28;20056;-65
2022/10/10 12:36:17;;;;;;;8.02;4.45;;;14.10;99.90;;;;;;5073882;28;20090;-65
2022/10/10 12:39:05;;;;;;;8.50;4.15;;;14.10;99.90;;;;;;5072655;28;20055;-65
2022/10/10 12:41:55;;;;;;;12.05;4.65;;;14.20;99.90;;;;;;5074039;28;20039;-65
2022/10/10 12:44:33;;;;;;;9.57;4.80;;;14.20;99.90;;;;;;5073655;28;20123;-65
2022/10/10 12:47:14;;;;;;;6.55;4.15;;;14.20;99.90;;;;;;5073428;28;20419;-67
2022/10/10 12:49:52;;;;;;;12.80;4.72;;;14.20;99.90;;;;;;5073769;28;20055;-64
2022/10/10 12:52:36;;;;;;;11.77;5.05;;;14.20;99.90;;;;;;5073780;28;20396;-64
2022/10/10 12:55:15;;;;;;;10.60;4.88;;;14.20;99.90;;;;;;5073262;28;20046;-64
2022/10/10 12:57:42;;;;;;;7.85;4.63;;;14.20;99.90;;;;;;5073760;28;20149;-65
2022/10/10 13:00:23;;;;;;;9.07;4.40;;;14.20;99.90;;;;;;5073271;28;20044;-65
2022/10/10 13:02:56;;;;;;;9.95;4.80;;;14.20;99.90;;;;;;5072039;28;20043;-65
2022/10/10 13:05:34;;;;;;;8.18;4.97;;;14.20;99.90;;;;;;5072854;28;20051;-65
2022/10/10 13:08:04;;;;;;;11.35;5.22;;;14.20;99.90;;;;;;5069143;28;20036;-65
2022/10/10 13:10:31;;;;;;;10.07;5.75;;;14.20;99.90;;;;;;5070498;28;20052;-64
2022/10/10 13:13:14;;;;;;;11.13;5.10;;;14.20;99.90;;;;;;5072917;28;20040;-64
2022/10/10 13:15:53;;;;;;;10.43;5.60;;;14.10;99.90;;;;;;5071387;28;20082;-65